Time;durP1;ratioP1;P1;durP2;ratioP2;P2;SDS_P1;SDS_P2;PMS_P1;PMS_P2;Temp;Humidity;BMP_temperature;BMP_pressure;BME280_temperature;BME280_humidity;BME280_pressure;Samples;Min_cycle;Max_cycle;Signal;HPM_P1;HPM_P2
2022/06/08 00:01:10;;;;;;;13.45;7.65;;;10.50;99.90;;;;;;5057382;28;20036;-64
2022/06/08 00:03:46;;;;;;;12.85;6.28;;;10.50;99.90;;;;;;5056393;28;20037;-65
2022/06/08 00:06:14;;;;;;;9.00;5.65;;;10.50;99.90;;;;;;5038400;28;20045;-65
2022/06/08 00:08:40;;;;;;;9.60;6.85;;;10.50;99.90;;;;;;5020818;28;20086;-64
2022/06/08 00:11:06;;;;;;;15.50;6.53;;;10.50;99.90;;;;;;5055969;28;20434;-65
2022/06/08 00:13:31;;;;;;;10.95;7.07;;;10.50;99.90;;;;;;5038260;28;20045;-64
2022/06/08 00:15:57;;;;;;;10.18;6.53;;;10.60;99.90;;;;;;5054649;28;20090;-65
2022/06/08 00:18:23;;;;;;;10.27;5.78;;;10.50;99.90;;;;;;5038950;28;20045;-65
2022/06/08 00:20:48;;;;;;;7.25;4.78;;;10.50;99.90;;;;;;5056931;28;20041;-64
2022/06/08 00:23:14;;;;;;;5.55;4.53;;;10.60;99.90;;;;;;5056027;28;20441;-65
2022/06/08 00:25:41;;;;;;;9.25;5.97;;;10.50;99.90;;;;;;5021919;28;20445;-67
2022/06/08 00:28:06;;;;;;;9.65;6.20;;;10.40;99.90;;;;;;5038268;28;20045;-64
2022/06/08 00:30:33;;;;;;;14.10;8.00;;;10.50;99.90;;;;;;5055579;28;20037;-66
2022/06/08 00:32:59;;;;;;;18.45;7.88;;;10.50;99.90;;;;;;5036874;28;20040;-65
2022/06/08 00:35:25;;;;;;;12.32;7.72;;;10.60;99.90;;;;;;5055502;28;20029;-65
2022/06/08 00:37:51;;;;;;;15.13;7.70;;;10.60;99.90;;;;;;5037742;28;20036;-65
2022/06/08 00:40:20;;;;;;;15.45;8.00;;;10.70;99.90;;;;;;5056395;28;20029;-65
2022/06/08 00:42:46;;;;;;;13.80;8.13;;;;;;;;;;5055119;28;20063;-62
2022/06/08 00:45:20;;;;;;;12.85;8.02;;;10.70;99.90;;;;;;5053987;28;20071;-66
2022/06/08 00:47:55;;;;;;;12.50;7.15;;;10.70;99.90;;;;;;5036624;28;20518;-65
2022/06/08 00:50:26;;;;;;;14.25;8.20;;;10.80;99.90;;;;;;5024055;28;20037;-65
2022/06/08 00:52:53;;;;;;;16.08;8.75;;;10.80;99.90;;;;;;5037266;28;20044;-65
2022/06/08 00:55:23;;;;;;;17.17;9.85;;;10.80;99.90;;;;;;5020073;28;20406;-65
2022/06/08 00:57:55;;;;;;;18.35;10.80;;;10.90;99.90;;;;;;5055529;28;20564;-65
2022/06/08 01:00:34;;;;;;;20.75;10.35;;;10.80;99.90;;;;;;5037915;28;20107;-65
2022/06/08 01:03:00;;;;;;;17.42;10.40;;;10.80;99.90;;;;;;5055884;28;20163;-66
2022/06/08 01:05:31;;;;;;;15.02;10.15;;;11.00;99.90;;;;;;5054501;28;20049;-65
2022/06/08 01:08:04;;;;;;;23.05;11.23;;;10.80;99.90;;;;;;5020247;28;20376;-66
2022/06/08 01:10:44;;;;;;;22.33;12.68;;;10.70;99.90;;;;;;5055137;28;20029;-65
2022/06/08 01:13:10;;;;;;;19.67;12.63;;;10.70;99.90;;;;;;5036352;28;20489;-65
2022/06/08 01:15:39;;;;;;;21.45;12.63;;;10.80;99.90;;;;;;5053999;28;20037;-65
2022/06/08 01:18:05;;;;;;;22.92;12.90;;;10.80;99.90;;;;;;5036150;28;20037;-65
2022/06/08 01:20:32;;;;;;;23.23;12.50;;;10.90;99.90;;;;;;5035946;28;20037;-65
2022/06/08 01:22:58;;;;;;;25.42;13.60;;;10.70;99.90;;;;;;5019835;28;20041;-66
2022/06/08 01:25:26;;;;;;;21.23;12.10;;;10.90;99.90;;;;;;5056390;28;20394;-65
2022/06/08 01:28:25;;;;;;;17.85;12.25;;;10.80;99.90;;;;;;5058334;28;20048;-63
2022/06/08 01:30:51;;;;;;;23.67;15.30;;;;;;;;;;5040277;28;20506;-65
2022/06/08 01:33:53;;;;;;;23.52;14.77;;;11.00;99.90;;;;;;5027249;28;20044;-65
2022/06/08 01:36:56;;;;;;;25.17;13.55;;;11.00;99.90;;;;;;5059134;28;20052;-65
2022/06/08 01:39:31;;;;;;;21.65;13.80;;;11.10;99.90;;;;;;5040141;28;20045;-66
2022/06/08 01:42:00;;;;;;;22.33;12.38;;;11.00;99.90;;;;;;5028187;28;20504;-65
2022/06/08 01:44:33;;;;;;;21.38;12.20;;;11.00;99.90;;;;;;5040648;28;20091;-65
2022/06/08 01:47:14;;;;;;;23.02;14.23;;;11.00;99.90;;;;;;5037759;28;20106;-65
2022/06/08 01:50:09;;;;;;;19.77;12.40;;;11.20;99.90;;;;;;5040143;28;20076;-65
2022/06/08 01:53:27;;;;;;;18.98;12.75;;;10.80;99.90;;;;;;5058777;28;20102;-65
2022/06/08 01:56:15;;;;;;;21.48;12.00;;;10.80;99.90;;;;;;5006598;28;20053;-65
2022/06/08 01:58:41;;;;;;;22.00;12.60;;;;;;;;;;5039221;28;20041;-64
2022/06/08 02:01:28;;;;;;;21.23;12.85;;;10.80;99.90;;;;;;5038916;28;20053;-65
2022/06/08 02:04:00;;;;;;;21.35;12.73;;;10.70;99.90;;;;;;5043119;28;20037;-65
2022/06/08 02:06:37;;;;;;;20.55;12.35;;;10.60;99.90;;;;;;5039196;28;20178;-65
2022/06/08 02:09:13;;;;;;;21.45;12.77;;;10.50;99.90;;;;;;5058119;28;20099;-65
2022/06/08 02:11:38;;;;;;;;;;;10.60;99.90;;;;;;5040230;28;20045;-64
2022/06/08 02:14:10;;;;;;;19.13;13.00;;;10.70;99.90;;;;;;5040330;28;19943;-65
2022/06/08 02:16:49;;;;;;;18.35;11.95;;;10.50;99.90;;;;;;5039855;28;20055;-65
2022/06/08 02:19:23;;;;;;;17.88;11.93;;;10.60;99.90;;;;;;5040105;28;20033;-65
2022/06/08 02:22:13;;;;;;;21.38;12.02;;;10.40;99.90;;;;;;5057326;28;20029;-64
2022/06/08 02:24:57;;;;;;;19.60;12.25;;;10.50;99.90;;;;;;5028486;28;20056;-65
2022/06/08 02:27:35;;;;;;;19.65;12.57;;;10.40;99.90;;;;;;5056378;28;20041;-65
2022/06/08 02:30:10;;;;;;;17.83;12.52;;;10.60;99.90;;;;;;5044175;28;20158;-65
2022/06/08 02:35:35;;;;;;;19.27;12.23;;;10.40;99.90;;;;;;5056988;28;20083;-65
2022/06/08 02:38:09;;;;;;;22.75;13.40;;;10.50;99.90;;;;;;5053839;28;20448;-65
2022/06/08 02:40:40;;;;;;;20.35;13.10;;;10.50;99.90;;;;;;5017780;28;20041;-65
2022/06/08 02:43:15;;;;;;;23.92;14.25;;;10.70;99.90;;;;;;5022269;28;20033;-65
2022/06/08 02:45:44;;;;;;;21.58;12.82;;;10.70;99.90;;;;;;5038694;28;20044;-65
2022/06/08 02:48:11;;;;;;;23.25;14.00;;;;;;;;;;5038105;28;20052;-65
2022/06/08 02:50:46;;;;;;;24.33;12.90;;;10.60;99.90;;;;;;5056017;28;20110;-65
2022/06/08 02:53:18;;;;;;;22.83;13.93;;;10.60;99.90;;;;;;5038382;28;20044;-65
2022/06/08 02:55:55;;;;;;;23.48;13.93;;;10.50;99.90;;;;;;5038712;28;20061;-65
2022/06/08 02:58:23;;;;;;;27.67;14.35;;;10.60;99.90;;;;;;5038375;28;20059;-65
2022/06/08 03:00:53;;;;;;;22.70;14.02;;;10.70;99.90;;;;;;5056002;28;20120;-65
2022/06/08 03:03:26;;;;;;;24.55;13.27;;;10.70;99.90;;;;;;5057532;28;20033;-65
2022/06/08 03:06:09;;;;;;;23.02;14.23;;;10.60;99.90;;;;;;5038910;28;20059;-65
2022/06/08 03:08:39;;;;;;;22.55;13.65;;;10.70;99.90;;;;;;5038398;28;20041;-65
2022/06/08 03:11:08;;;;;;;31.77;15.68;;;10.80;99.90;;;;;;5055757;28;20056;-65
2022/06/08 03:13:43;;;;;;;27.73;15.05;;;10.70;99.90;;;;;;5056016;28;20045;-66
2022/06/08 03:16:22;;;;;;;24.17;14.98;;;10.80;99.90;;;;;;5021723;28;20574;-64
2022/06/08 03:18:48;;;;;;;24.17;14.57;;;10.90;99.90;;;;;;5055859;28;20056;-65
2022/06/08 03:21:14;;;;;;;27.63;15.15;;;11.00;99.90;;;;;;5021641;28;20041;-65
2022/06/08 03:23:39;;;;;;;33.10;17.15;;;10.90;99.90;;;;;;5055865;28;20498;-65
2022/06/08 03:26:05;;;;;;;26.50;15.82;;;11.00;99.90;;;;;;5022487;28;20127;-65
2022/06/08 03:28:33;;;;;;;25.88;16.20;;;11.10;99.90;;;;;;5021590;28;20115;-65
2022/06/08 03:30:58;;;;;;;27.33;16.33;;;11.10;99.90;;;;;;5039650;28;20127;-65
2022/06/08 03:33:24;;;;;;;27.33;16.05;;;11.20;99.90;;;;;;5056098;28;20072;-67
2022/06/08 03:35:50;;;;;;;27.95;17.10;;;11.20;99.90;;;;;;5038953;28;20491;-65
2022/06/08 03:38:16;;;;;;;28.80;16.20;;;;;;;;;;5055996;28;20073;-64
2022/06/08 03:40:41;;;;;;;30.38;17.35;;;11.30;99.90;;;;;;5038054;28;20049;-65
2022/06/08 03:43:07;;;;;;;29.48;19.63;;;11.60;99.90;;;;;;5038087;28;20037;-64
2022/06/08 03:45:40;;;;;;;27.73;17.27;;;11.40;99.90;;;;;;5056563;28;20526;-66
2022/06/08 03:48:07;;;;;;;29.40;16.95;;;11.50;99.90;;;;;;5038630;28;20083;-65
2022/06/08 03:50:33;;;;;;;28.67;17.52;;;11.50;99.90;;;;;;5054328;28;20043;-66
2022/06/08 03:53:15;;;;;;;30.50;17.70;;;11.70;99.90;;;;;;5055556;28;20045;-65
2022/06/08 03:55:41;;;;;;;29.35;18.00;;;11.80;99.90;;;;;;5037612;28;20049;-65
2022/06/08 03:58:07;;;;;;;27.92;17.48;;;11.80;99.90;;;;;;5038116;28;20423;-65
2022/06/08 04:00:34;;;;;;;28.50;18.58;;;11.60;99.90;;;;;;5055085;28;20041;-64
2022/06/08 04:03:01;;;;;;;27.45;16.95;;;11.70;99.90;;;;;;5037821;28;20051;-65
2022/06/08 04:05:27;;;;;;;32.33;18.90;;;;;;;;;;5055843;28;20043;-65
2022/06/08 04:07:53;;;;;;;28.52;17.40;;;11.70;99.90;;;;;;5038362;28;20037;-65
2022/06/08 04:10:19;;;;;;;32.33;18.80;;;;;;;;;;5056088;28;20106;-63
2022/06/08 04:12:44;;;;;;;27.20;16.90;;;11.80;99.90;;;;;;5037669;28;20037;-66
2022/06/08 04:15:10;;;;;;;33.35;18.45;;;11.90;99.90;;;;;;5055120;28;20037;-65
2022/06/08 04:17:36;;;;;;;30.70;18.83;;;11.90;99.90;;;;;;5037509;28;20403;-65
2022/06/08 04:20:03;;;;;;;32.33;18.70;;;11.90;99.90;;;;;;5055960;28;20124;-65
2022/06/08 04:22:31;;;;;;;32.80;19.13;;;11.80;99.90;;;;;;5020819;28;20059;-65
2022/06/08 04:24:59;;;;;;;34.38;19.52;;;12.00;99.90;;;;;;5037711;28;20049;-65
2022/06/08 04:27:26;;;;;;;35.97;19.90;;;12.30;99.90;;;;;;5055917;28;20087;-65
2022/06/08 04:29:53;;;;;;;36.20;20.23;;;12.10;99.90;;;;;;5037194;28;20132;-65
2022/06/08 04:32:19;;;;;;;35.75;20.77;;;12.10;99.90;;;;;;5048613;28;20115;-65
2022/06/08 04:34:45;;;;;;;35.42;20.17;;;12.10;99.90;;;;;;5055699;28;20033;-64
2022/06/08 04:37:11;;;;;;;35.10;21.88;;;12.20;99.90;;;;;;5055956;28;20114;-65
2022/06/08 04:39:37;;;;;;;40.65;20.88;;;;;;;;;;5017792;28;20040;-65
2022/06/08 04:42:04;;;;;;;33.67;20.30;;;12.30;99.90;;;;;;5043964;28;20037;-66
2022/06/08 04:44:30;;;;;;;37.33;22.10;;;12.30;99.90;;;;;;5055121;28;20116;-64
2022/06/08 04:46:55;;;;;;;37.75;22.23;;;12.50;99.90;;;;;;5021048;28;20528;-66
2022/06/08 04:49:21;;;;;;;36.20;22.20;;;;;;;;;;5033685;28;20045;-64
2022/06/08 04:51:47;;;;;;;36.45;22.70;;;12.50;99.90;;;;;;5026099;28;20045;-65
2022/06/08 04:54:13;;;;;;;38.20;22.20;;;12.50;99.90;;;;;;5036943;28;20103;-65
2022/06/08 04:56:38;;;;;;;35.78;21.20;;;12.60;99.90;;;;;;5054944;28;20060;-66
2022/06/08 04:59:04;;;;;;;38.67;22.38;;;12.80;99.90;;;;;;5034792;28;20487;-64
2022/06/08 05:01:30;;;;;;;40.13;23.63;;;12.80;99.90;;;;;;5050129;28;20554;-65
2022/06/08 05:03:56;;;;;;;40.60;23.00;;;;;;;;;;5049734;28;20414;-65
2022/06/08 05:06:22;;;;;;;44.17;23.42;;;12.80;99.90;;;;;;5014432;28;20090;-64
2022/06/08 05:08:48;;;;;;;38.03;23.65;;;;;;;;;;5049432;28;20098;-65
2022/06/08 05:11:14;;;;;;;43.33;23.25;;;;;;;;;;5031633;28;20106;-64
2022/06/08 05:13:40;;;;;;;36.55;21.55;;;13.00;99.90;;;;;;5046121;28;20077;-64
2022/06/08 05:16:06;;;;;;;42.83;21.73;;;13.10;99.90;;;;;;5029026;28;20045;-65
2022/06/08 05:18:32;;;;;;;37.70;22.25;;;;;;;;;;5047922;28;20044;-64
2022/06/08 05:20:58;;;;;;;40.03;23.13;;;;;;;;;;5046787;28;20533;-64
2022/06/08 05:23:31;;;;;;;45.88;24.23;;;13.10;99.90;;;;;;5048150;28;20032;-64
2022/06/08 05:25:58;;;;;;;34.90;21.15;;;;;;;;;;5044055;28;20537;-63
2022/06/08 05:28:24;;;;;;;34.67;22.52;;;13.30;99.90;;;;;;5027670;28;20077;-64
2022/06/08 05:30:50;;;;;;;34.00;21.58;;;;;;;;;;5034507;28;20087;-64
2022/06/08 05:33:16;;;;;;;35.10;21.52;;;13.70;99.90;;;;;;5011198;28;20049;-65
2022/06/08 05:35:44;;;;;;;37.28;21.83;;;;;;;;;;5011589;28;20041;-65
2022/06/08 05:38:10;;;;;;;33.08;19.90;;;;;;;;;;5009363;28;20491;-65
2022/06/08 05:40:37;;;;;;;30.95;18.30;;;13.70;99.90;;;;;;5014175;28;20041;-65
2022/06/08 05:43:05;;;;;;;30.08;17.92;;;13.80;99.90;;;;;;5015313;28;20041;-65
2022/06/08 05:45:31;;;;;;;31.73;20.55;;;;;;;;;;5032750;28;20441;-65
2022/06/08 05:47:57;;;;;;;32.15;19.58;;;14.00;99.90;;;;;;5019102;28;20034;-65
2022/06/08 05:50:23;;;;;;;30.20;18.67;;;;;;;;;;5027257;28;20044;-63
2022/06/08 05:52:49;;;;;;;28.77;19.10;;;13.90;99.90;;;;;;5036215;28;20041;-65
2022/06/08 05:55:16;;;;;;;32.58;21.10;;;;;;;;;;5015967;28;20042;-64
2022/06/08 05:57:42;;;;;;;31.30;20.23;;;14.20;99.90;;;;;;5037610;28;20400;-64
2022/06/08 06:00:12;;;;;;;34.60;19.08;;;14.20;99.90;;;;;;5036193;28;20052;-64
2022/06/08 06:02:37;;;;;;;35.25;20.02;;;14.40;99.90;;;;;;5038637;28;20063;-64
2022/06/08 06:05:04;;;;;;;25.42;17.45;;;14.10;99.90;;;;;;5037783;28;20479;-64
2022/06/08 06:07:30;;;;;;;30.15;18.75;;;14.30;99.90;;;;;;5016714;28;20086;-64
2022/06/08 06:10:02;;;;;;;30.45;18.42;;;;;;;;;;5040562;28;20041;-64
2022/06/08 06:12:28;;;;;;;29.83;18.83;;;14.10;99.90;;;;;;5033970;28;20502;-64
2022/06/08 06:14:54;;;;;;;30.63;17.63;;;14.40;99.90;;;;;;5035852;28;20091;-65
2022/06/08 06:17:19;;;;;;;30.20;18.85;;;14.50;99.90;;;;;;5054563;28;20065;-64
2022/06/08 06:19:45;;;;;;;29.95;18.27;;;14.50;99.90;;;;;;5055259;28;20029;-64
2022/06/08 06:22:11;;;;;;;27.90;18.33;;;14.50;99.90;;;;;;5054686;28;20065;-64
2022/06/08 06:24:36;;;;;;;28.92;19.90;;;14.60;99.90;;;;;;5054708;28;20094;-65
2022/06/08 06:27:02;;;;;;;30.38;19.63;;;14.50;99.90;;;;;;5054811;28;20036;-65
2022/06/08 06:29:28;;;;;;;29.58;17.35;;;14.70;99.90;;;;;;5033445;28;20041;-64
2022/06/08 06:31:56;;;;;;;24.35;15.68;;;15.00;99.90;;;;;;5047886;28;20048;-65
2022/06/08 06:34:26;;;;;;;25.83;16.15;;;15.10;99.90;;;;;;5053596;28;20033;-65
2022/06/08 06:36:53;;;;;;;25.95;15.88;;;15.50;99.90;;;;;;5050188;28;20033;-65
2022/06/08 06:39:20;;;;;;;22.30;13.35;;;15.70;99.90;;;;;;5049824;28;20049;-65
2022/06/08 06:41:47;;;;;;;20.77;14.50;;;15.80;99.90;;;;;;5022325;28;20044;-64
2022/06/08 06:44:13;;;;;;;20.40;13.88;;;16.00;99.90;;;;;;5053946;28;20080;-66
2022/06/08 06:46:38;;;;;;;20.42;14.93;;;16.10;99.90;;;;;;5025112;28;20091;-65
2022/06/08 06:49:04;;;;;;;23.65;12.13;;;16.10;99.90;;;;;;5036245;28;20037;-67
2022/06/08 06:51:29;;;;;;;21.05;13.18;;;16.40;99.90;;;;;;5036089;28;20367;-66
2022/06/08 06:53:55;;;;;;;20.27;12.40;;;16.50;99.90;;;;;;5053820;28;20044;-65
2022/06/08 06:56:21;;;;;;;17.58;11.80;;;16.50;99.90;;;;;;5032140;28;20415;-65
2022/06/08 07:02:18;;;;;;;13.68;10.20;;;16.50;99.90;;;;;;5030826;28;20049;-65
2022/06/08 07:04:43;;;;;;;16.05;11.15;;;16.60;99.90;;;;;;5038474;28;20037;-64
2022/06/08 07:07:09;;;;;;;15.50;10.18;;;16.60;99.90;;;;;;5036739;28;20041;-64
2022/06/08 07:09:35;;;;;;;15.50;10.35;;;16.70;99.90;;;;;;5037049;28;20041;-65
2022/06/08 07:12:01;;;;;;;13.82;9.45;;;16.90;99.90;;;;;;5039381;28;20108;-65
2022/06/08 07:14:28;;;;;;;14.85;9.15;;;16.70;99.90;;;;;;5033656;28;20046;-65
2022/06/08 07:16:54;;;;;;;12.77;8.45;;;16.80;99.90;;;;;;5037371;28;20495;-65
2022/06/08 07:19:21;;;;;;;14.60;8.35;;;16.70;99.90;;;;;;5026086;28;20380;-64
2022/06/08 07:21:47;;;;;;;13.38;8.18;;;16.70;99.90;;;;;;5026999;28;20063;-65
2022/06/08 07:24:21;;;;;;;9.80;7.03;;;16.80;99.90;;;;;;5044445;28;20048;-66
2022/06/08 07:26:47;;;;;;;;;;;16.70;99.90;;;;;;5033618;28;20052;-65
2022/06/08 07:29:13;;;;;;;13.40;6.35;;;16.80;99.90;;;;;;5052381;28;20466;-67
2022/06/08 07:31:39;;;;;;;11.90;6.50;;;16.70;99.90;;;;;;5050601;28;20039;-66
2022/06/08 07:34:05;;;;;;;9.40;5.68;;;16.80;99.90;;;;;;5034270;28;20513;-66
2022/06/08 07:36:31;;;;;;;7.97;5.70;;;16.80;99.90;;;;;;5033968;28;20068;-66
2022/06/08 07:38:56;;;;;;;8.73;5.93;;;16.90;99.90;;;;;;5040587;28;20472;-66
2022/06/08 07:41:23;;;;;;;9.60;5.07;;;16.90;99.90;;;;;;5032262;28;20037;-66
2022/06/08 07:43:48;;;;;;;5.70;4.13;;;17.10;99.90;;;;;;5051587;28;20088;-66
2022/06/08 07:46:14;;;;;;;8.20;4.65;;;17.00;99.90;;;;;;5051098;28;20087;-65
2022/06/08 07:51:24;;;;;;;6.25;4.53;;;17.20;99.90;;;;;;5029893;28;20053;-65
2022/06/08 07:53:50;;;;;;;9.93;4.72;;;17.20;99.90;;;;;;5016747;28;20041;-66
2022/06/08 07:56:16;;;;;;;5.70;4.55;;;17.40;99.90;;;;;;5031381;28;20041;-67
2022/06/08 08:02:11;;;;;;;6.35;4.93;;;;;;;;;;5027639;28;20445;-66
2022/06/08 08:04:37;;;;;;;9.43;4.78;;;17.50;99.90;;;;;;5026041;28;20502;-65
2022/06/08 08:07:03;;;;;;;8.30;4.93;;;17.30;99.90;;;;;;5049165;28;20059;-65
2022/06/08 08:09:31;;;;;;;7.40;4.95;;;17.70;99.90;;;;;;5015354;28;20041;-65
2022/06/08 08:11:57;;;;;;;9.52;5.18;;;17.60;99.90;;;;;;5027821;28;20518;-65
2022/06/08 08:14:24;;;;;;;6.95;4.40;;;17.70;99.90;;;;;;5022091;28;20037;-65
2022/06/08 08:16:50;;;;;;;5.10;4.05;;;17.80;99.90;;;;;;5050939;28;20068;-66
2022/06/08 08:19:18;;;;;;;9.55;5.40;;;18.00;99.90;;;;;;5033278;28;20072;-65
2022/06/08 08:21:46;;;;;;;9.27;4.70;;;18.20;99.90;;;;;;5051470;28;20041;-65
2022/06/08 08:24:11;;;;;;;5.75;3.53;;;18.00;99.90;;;;;;5027782;28;20041;-67
2022/06/08 08:26:37;;;;;;;4.68;3.55;;;18.00;99.90;;;;;;5031382;28;20051;-66
2022/06/08 08:29:04;;;;;;;4.28;2.92;;;18.10;99.90;;;;;;5031746;28;20485;-65
2022/06/08 08:31:31;;;;;;;3.83;2.05;;;17.70;99.90;;;;;;5031194;28;20029;-66
2022/06/08 08:33:57;;;;;;;4.13;2.15;;;18.00;99.90;;;;;;5031745;28;20053;-65
2022/06/08 08:36:23;;;;;;;2.95;2.25;;;17.90;99.90;;;;;;5050677;28;20111;-67
2022/06/08 08:38:49;;;;;;;6.18;2.33;;;18.10;99.90;;;;;;5051182;28;20048;-66
2022/06/08 08:44:06;;;;;;;3.70;2.50;;;18.10;99.90;;;;;;5050545;28;20059;-65
2022/06/08 08:46:49;;;;;;;5.32;3.00;;;18.30;99.90;;;;;;5043999;28;20037;-66
2022/06/08 08:49:20;;;;;;;3.63;2.10;;;18.20;99.90;;;;;;5036460;28;20049;-66
2022/06/08 08:52:09;;;;;;;8.02;2.65;;;18.30;99.90;;;;;;5034962;28;20033;-67
2022/06/08 08:54:54;;;;;;;4.35;2.83;;;18.10;99.90;;;;;;5031873;28;20041;-68
2022/06/08 08:57:35;;;;;;;4.70;2.70;;;18.30;99.90;;;;;;5013673;28;20045;-66
2022/06/08 09:00:14;;;;;;;3.80;2.47;;;18.60;99.90;;;;;;5030429;28;20566;-67
2022/06/08 09:03:22;;;;;;;8.18;3.45;;;18.50;99.90;;;;;;5011592;28;20335;-68
2022/06/08 09:05:30;;;;;;;7.25;3.00;;;18.50;99.90;;;;;;5026609;28;20049;-67
2022/06/08 09:07:58;;;;;;;3.95;2.30;;;18.60;99.90;;;;;;5032331;28;20457;-67
2022/06/08 09:10:25;;;;;;;8.70;3.60;;;18.70;99.90;;;;;;5038389;28;20774;-67
2022/06/08 09:12:51;;;;;;;5.07;3.55;;;18.70;99.90;;;;;;5032519;28;20091;-67
2022/06/08 09:15:38;;;;;;;4.60;2.75;;;18.80;99.90;;;;;;5033861;28;20029;-66
2022/06/08 09:18:05;;;;;;;5.50;3.33;;;19.00;99.90;;;;;;5032088;28;20048;-67
2022/06/08 09:20:36;;;;;;;8.52;3.72;;;18.80;99.90;;;;;;5015252;28;20045;-67
2022/06/08 09:23:30;;;;;;;3.80;3.00;;;19.00;99.90;;;;;;5013118;28;20050;-67
2022/06/08 09:26:04;;;;;;;3.95;2.60;;;19.00;99.90;;;;;;5035462;28;20048;-68
2022/06/08 09:28:32;;;;;;;4.28;2.50;;;18.80;99.90;;;;;;5015588;28;20029;-67
2022/06/08 09:30:58;;;;;;;3.17;2.40;;;18.80;99.90;;;;;;5017446;28;20159;-67
2022/06/08 09:33:36;;;;;;;3.15;1.98;;;19.90;99.90;;;;;;5032130;28;20041;-66
2022/06/08 09:36:26;;;;;;;3.13;2.10;;;18.80;99.90;;;;;;5013341;28;20499;-67
2022/06/08 09:38:52;;;;;;;6.35;2.28;;;18.90;99.90;;;;;;5031442;28;20033;-67
2022/06/08 09:41:47;;;;;;;4.20;2.00;;;19.50;99.90;;;;;;5030420;28;20098;-66
2022/06/08 09:44:31;;;;;;;4.35;2.78;;;19.20;99.90;;;;;;5035546;28;20037;-67
2022/06/08 09:53:32;;;;;;;7.22;3.83;;;19.20;99.90;;;;;;5032041;28;20139;-65
2022/06/08 09:56:20;;;;;;;6.35;2.80;;;19.30;99.90;;;;;;5016886;28;20053;-65
2022/06/08 09:58:52;;;;;;;7.13;3.90;;;19.60;99.90;;;;;;5054339;28;20417;-68
2022/06/08 10:01:36;;;;;;;14.85;4.00;;;19.50;99.90;;;;;;5036446;28;20116;-66
2022/06/08 10:04:39;;;;;;;4.95;3.00;;;19.50;99.90;;;;;;5022398;28;20103;-66
2022/06/08 10:07:41;;;;;;;5.72;3.20;;;19.60;99.90;;;;;;5024737;28;20084;-66
2022/06/08 10:10:12;;;;;;;4.57;3.08;;;19.70;99.90;;;;;;5051652;28;20041;-65
2022/06/08 10:12:58;;;;;;;4.45;2.30;;;19.70;99.90;;;;;;5053788;28;20159;-66
2022/06/08 10:15:30;;;;;;;4.40;2.80;;;19.40;99.90;;;;;;5036084;28;20041;-65
2022/06/08 10:18:06;;;;;;;4.68;2.55;;;19.30;99.90;;;;;;5053758;28;20037;-66
2022/06/08 10:20:36;;;;;;;3.70;2.38;;;19.30;99.90;;;;;;5053143;28;20040;-67
2022/06/08 10:23:44;;;;;;;3.50;2.55;;;19.10;99.90;;;;;;5038977;28;20043;-65
2022/06/08 10:26:18;;;;;;;4.82;2.58;;;18.90;99.90;;;;;;4977037;28;20503;-66
2022/06/08 10:29:26;;;;;;;2.97;2.60;;;19.10;99.90;;;;;;5019314;28;20475;-66
2022/06/08 10:32:00;;;;;;;4.13;2.83;;;18.80;99.90;;;;;;5010744;28;20056;-66
2022/06/08 10:34:32;;;;;;;4.47;2.97;;;18.80;99.90;;;;;;5016365;28;20404;-67
2022/06/08 10:37:14;;;;;;;6.32;3.22;;;18.60;99.90;;;;;;5018189;28;20071;-66
2022/06/08 10:39:43;;;;;;;4.72;3.28;;;18.50;99.90;;;;;;5015700;28;20060;-67
2022/06/08 10:44:58;;;;;;;8.95;3.95;;;18.30;99.90;;;;;;5035031;28;20057;-66
2022/06/08 10:47:37;;;;;;;9.80;4.32;;;18.40;99.90;;;;;;5018559;28;20081;-68
2022/06/08 10:50:03;;;;;;;15.07;5.50;;;18.20;99.90;;;;;;5036925;28;20100;-66
2022/06/08 10:56:22;;;;;;;7.80;4.40;;;17.80;99.90;;;;;;5032981;28;20080;-66
2022/06/08 10:59:03;;;;;;;12.60;4.47;;;17.70;99.90;;;;;;5017565;28;20085;-66
2022/06/08 11:01:47;;;;;;;7.03;4.63;;;17.90;99.90;;;;;;5036527;28;20045;-67
2022/06/08 11:04:31;;;;;;;6.90;4.45;;;17.90;99.90;;;;;;5031598;28;20037;-66
2022/06/08 11:07:10;;;;;;;8.52;4.22;;;17.70;99.90;;;;;;5033782;28;20414;-67
2022/06/08 11:09:36;;;;;;;7.80;4.70;;;18.10;99.90;;;;;;5024940;28;20046;-66
2022/06/08 11:12:16;;;;;;;7.22;4.28;;;17.80;99.90;;;;;;5002042;28;20048;-67
2022/06/08 11:14:47;;;;;;;6.70;5.05;;;18.10;99.90;;;;;;5015954;28;20041;-67
2022/06/08 11:17:15;;;;;;;7.22;5.30;;;18.20;99.90;;;;;;5015553;28;20037;-67
2022/06/08 11:19:42;;;;;;;8.40;5.20;;;18.10;99.90;;;;;;5037299;28;20207;-68
2022/06/08 11:22:21;;;;;;;10.02;4.60;;;18.30;99.90;;;;;;5032832;28;20041;-67
2022/06/08 11:24:51;;;;;;;10.13;4.50;;;18.50;99.90;;;;;;5036397;28;20087;-67
2022/06/08 11:27:20;;;;;;;6.95;3.47;;;19.00;99.90;;;;;;5051593;28;20071;-66
2022/06/08 11:29:51;;;;;;;8.60;4.70;;;19.00;99.90;;;;;;5052450;28;20287;-66
2022/06/08 11:32:32;;;;;;;5.43;3.50;;;19.10;99.90;;;;;;5034804;28;20044;-66
2022/06/08 11:35:26;;;;;;;9.15;3.70;;;19.20;99.90;;;;;;5034751;28;20388;-66
2022/06/08 11:38:10;;;;;;;6.60;4.00;;;19.20;99.90;;;;;;5049935;28;20072;-66
2022/06/08 11:40:36;;;;;;;6.78;3.55;;;19.20;99.90;;;;;;5018445;28;20044;-67
2022/06/08 11:43:24;;;;;;;5.13;3.28;;;19.50;99.90;;;;;;5036757;28;20536;-65
2022/06/08 11:45:54;;;;;;;9.05;3.50;;;20.70;99.90;;;;;;5043369;28;20037;-65
2022/06/08 11:48:22;;;;;;;11.30;2.75;;;19.20;99.90;;;;;;5034505;28;20091;-66
2022/06/08 11:51:03;;;;;;;6.35;3.00;;;19.10;99.90;;;;;;5036914;28;20082;-65
2022/06/08 11:53:38;;;;;;;4.70;2.08;;;18.80;99.90;;;;;;5040118;28;20407;-65
2022/06/08 11:56:37;;;;;;;5.70;2.50;;;18.90;99.90;;;;;;5012987;28;20056;-65
2022/06/08 11:59:06;;;;;;;6.30;2.90;;;18.40;99.90;;;;;;5006059;28;20057;-65
2022/06/08 12:01:42;;;;;;;7.50;2.72;;;18.00;99.90;;;;;;5021393;28;20045;-65
2022/06/08 12:04:14;;;;;;;10.13;3.28;;;17.90;99.90;;;;;;5025000;28;20053;-65
2022/06/08 12:06:43;;;;;;;7.18;3.63;;;17.60;99.90;;;;;;5029199;28;20041;-65
2022/06/08 12:09:20;;;;;;;5.57;2.90;;;17.90;99.90;;;;;;5028673;28;20049;-65
2022/06/08 12:11:49;;;;;;;7.75;3.88;;;17.50;99.90;;;;;;5015364;28;20050;-65
2022/06/08 12:14:14;;;;;;;8.15;3.67;;;17.70;99.90;;;;;;5025279;28;20050;-66
2022/06/08 12:16:55;;;;;;;7.95;3.85;;;17.40;99.90;;;;;;5028260;28;20076;-67
2022/06/08 12:19:22;;;;;;;8.20;4.25;;;17.40;99.90;;;;;;5011330;28;20041;-66
2022/06/08 12:22:05;;;;;;;8.30;3.90;;;17.50;99.90;;;;;;5028304;28;20788;-66
2022/06/08 12:24:31;;;;;;;8.18;4.18;;;17.50;99.90;;;;;;5009289;28;20559;-66
2022/06/08 12:27:20;;;;;;;9.48;4.28;;;17.50;99.90;;;;;;5016451;28;20065;-66
2022/06/08 12:29:53;;;;;;;7.75;4.40;;;17.30;99.90;;;;;;5011306;28;20052;-66
2022/06/08 12:32:33;;;;;;;11.00;5.50;;;17.40;99.90;;;;;;5020099;28;20390;-66
2022/06/08 12:35:15;;;;;;;13.15;5.80;;;17.30;99.90;;;;;;5028620;28;20045;-66
2022/06/08 12:37:44;;;;;;;10.63;5.95;;;17.30;99.90;;;;;;5028097;28;20037;-66
2022/06/08 12:40:16;;;;;;;9.15;5.35;;;17.50;99.90;;;;;;5028198;28;20052;-66
2022/06/08 12:42:54;;;;;;;11.50;5.95;;;17.40;99.90;;;;;;5028193;28;20518;-67
2022/06/08 12:45:33;;;;;;;9.20;4.18;;;17.60;99.90;;;;;;5012367;28;20038;-67
2022/06/08 12:48:19;;;;;;;9.05;3.78;;;17.60;99.90;;;;;;5010158;28;20045;-66
2022/06/08 12:50:46;;;;;;;9.60;4.53;;;18.20;99.90;;;;;;5015442;28;20618;-66
2022/06/08 12:53:12;;;;;;;6.88;4.30;;;17.30;99.90;;;;;;5029735;28;20103;-66
2022/06/08 12:55:40;;;;;;;9.15;5.10;;;17.30;99.90;;;;;;5024333;28;20048;-67
2022/06/08 12:58:06;;;;;;;9.10;4.57;;;17.40;99.90;;;;;;5050848;28;20040;-67
2022/06/08 13:00:35;;;;;;;6.50;4.32;;;17.60;99.90;;;;;;5051114;28;20037;-67
2022/06/08 13:03:07;;;;;;;10.23;4.13;;;17.40;99.90;;;;;;5032862;28;20410;-66
2022/06/08 13:05:36;;;;;;;7.82;4.30;;;17.60;99.90;;;;;;5048528;28;20551;-67
2022/06/08 13:08:02;;;;;;;5.90;4.00;;;17.40;99.90;;;;;;5041193;28;20040;-67
2022/06/08 13:10:30;;;;;;;10.43;4.38;;;17.40;99.90;;;;;;5050806;28;20072;-68
2022/06/08 13:13:03;;;;;;;8.18;5.80;;;17.50;99.90;;;;;;5037773;28;20527;-68
2022/06/08 13:15:39;;;;;;;11.32;6.35;;;17.30;99.90;;;;;;5019882;28;20055;-67
2022/06/08 13:18:06;;;;;;;11.98;5.95;;;17.70;99.90;;;;;;5023559;28;20052;-68
2022/06/08 13:20:37;;;;;;;14.52;6.60;;;17.40;99.90;;;;;;5043245;28;20037;-68
2022/06/08 13:23:03;;;;;;;11.30;7.05;;;18.00;99.90;;;;;;5019660;28;20045;-67
2022/06/08 13:25:32;;;;;;;12.48;7.43;;;17.80;99.90;;;;;;5032285;28;20067;-68
2022/06/08 13:27:58;;;;;;;9.27;6.07;;;17.60;99.90;;;;;;5034122;28;20470;-68
2022/06/08 13:30:30;;;;;;;10.40;6.22;;;17.50;99.90;;;;;;5034808;28;20037;-67
2022/06/08 13:32:57;;;;;;;9.90;6.57;;;19.00;99.90;;;;;;5032774;28;20703;-66